Details From TNCB - Bonaire Flamingo
To SARP - Posadas
Flight Number -
Tags Decoded
Created
Modified
Stats Distance 2,469 nm / 4,572 km
Max Altitude 0 ft / 0 m
Waypoints 2
Social Downloads 0
Likes 0
Share VATSIM

Download

Looking for another format? Having issues loading an existing format? Contact us
Advertisement - Login to hide

Notes

Decoded

Route

BONAX POS

ID Type Via Altitude Latitude Longitude Leg Dist Tot Dist Heading (true) Name
O BONAX FIX - 0 ft / 0 m 12.07833˚ -67.83000˚ - 0 nm - -
O POS VOR - 0 ft / 0 m -27.38556˚ -55.96917˚ 2468 nm 2468 nm 164° / 162° POSADAS VOR-DME

Altitude Profile

Advertisement - Login to hide

Weather


0- 5 10 15 20 25 30 35+ Temperature / ° C

Clouds and Precipitation
Forecast for 2017-12-11 12:00 UTC. Updated 25 minutes ago

Ground ~20,000 ft ~40,000 ft Winds

TNCB

Details ICAO TNCB (BON)
Name Bonaire Flamingo
Region Caribbean Netherlands, Aruba, Curaçao, Sint Maarten
Timezone America/Curacao (UTC-4.0)
Stats Elevation 20 ft / 6 m (AMSL)
Location 12.131046° -68.268511°
Runways 1
Magnetic Variation 11.703° W

METAR

TNCB 110855Z AUTO 07003KT 9999 NCD 23/21 Q1011

Decode

TAF

TAF TNCB 110459Z 1106/1212 08008KT 9999 SCT018

Decode

Departure Runways

ID Width Length Bearing (true) Bearing (mag) Surface Threshold Offset Overrun Length
10 148 ft / 45 m 9,451 ft / 2,881 m 91.75° 103.45° Asphalt 0 ft / 0 m 0 ft / 0 m
28 148 ft / 45 m 9,451 ft / 2,881 m 271.76° 283.46° Asphalt 0 ft / 0 m 200 ft / 61 m

SARP

Details ICAO SARP (PSS)
Name POSADAS
Region Argentina
Timezone America/Argentina/Cordoba (UTC-3.0)
Stats Elevation 430 ft / 131 m (AMSL)
Location -27.385838° -55.970726°
Runways 1
Magnetic Variation 14.547° W

METAR

SARP 110900Z 11002KT CAVOK 21/16 Q1008

Decode

TAF

TAF SARP 110500Z 1106/1206 16005KT CAVOK TX37/1118Z TN21/1109Z

Decode

Destination Runways

ID Width Length Bearing (true) Bearing (mag) Surface Threshold Offset Overrun Length
01 98 ft / 30 m 7,433 ft / 2,266 m 359.33° 13.88° Asphalt 0 ft / 0 m 75 ft / 23 m
19 98 ft / 30 m 7,433 ft / 2,266 m 179.33° 193.88° Asphalt 0 ft / 0 m 75 ft / 23 m

Approach Navaids

Runway Type Ident Frequency Range Bearing (true) Bearing (mag) Slope Elevation
19 Localiser PO 109.90 MHz 18 nm / 33 km 178.76° 193.31° - 430 ft / 131 m (AMSL)
19 Glidescope PO 109.90 MHz 10 nm / 19 km 179.33° 193.88° 3.00° 430 ft / 131 m (AMSL)
19 DME PO 109.90 MHz 18 nm / 33 km - - - 429 ft / 131 m (AMSL)